sensor_id;sensor_type;location;lat;lon;timestamp;P1;durP1;ratioP1;P2;durP2;ratioP2
78224;SDS011;67498;53.650;10.090;2023-04-24T00:00:06;3.20;;;0.98;;
78224;SDS011;67498;53.650;10.090;2023-04-24T00:02:32;2.25;;;0.70;;
78224;SDS011;67498;53.650;10.090;2023-04-24T00:04:57;4.75;;;0.98;;
78224;SDS011;67498;53.650;10.090;2023-04-24T00:07:27;3.73;;;1.00;;
78224;SDS011;67498;53.650;10.090;2023-04-24T00:09:52;4.67;;;1.67;;
78224;SDS011;67498;53.650;10.090;2023-04-24T00:12:17;3.50;;;0.57;;
78224;SDS011;67498;53.650;10.090;2023-04-24T00:14:42;3.37;;;0.90;;
78224;SDS011;67498;53.650;10.090;2023-04-24T00:17:07;4.20;;;1.17;;
78224;SDS011;67498;53.650;10.090;2023-04-24T00:19:32;5.13;;;1.42;;
78224;SDS011;67498;53.650;10.090;2023-04-24T00:21:58;4.72;;;1.45;;
78224;SDS011;67498;53.650;10.090;2023-04-24T00:24:23;4.55;;;1.23;;
78224;SDS011;67498;53.650;10.090;2023-04-24T00:26:48;5.33;;;1.43;;
78224;SDS011;67498;53.650;10.090;2023-04-24T00:29:13;6.82;;;1.30;;
78224;SDS011;67498;53.650;10.090;2023-04-24T00:31:39;5.30;;;1.10;;
78224;SDS011;67498;53.650;10.090;2023-04-24T00:34:04;2.40;;;0.77;;
78224;SDS011;67498;53.650;10.090;2023-04-24T00:36:30;3.28;;;0.90;;
78224;SDS011;67498;53.650;10.090;2023-04-24T00:38:56;3.50;;;0.83;;
78224;SDS011;67498;53.650;10.090;2023-04-24T00:41:21;4.20;;;1.50;;
78224;SDS011;67498;53.650;10.090;2023-04-24T00:43:47;6.73;;;1.20;;
78224;SDS011;67498;53.650;10.090;2023-04-24T00:46:12;4.50;;;1.40;;
78224;SDS011;67498;53.650;10.090;2023-04-24T00:48:38;3.80;;;1.00;;
78224;SDS011;67498;53.650;10.090;2023-04-24T00:51:04;4.63;;;1.30;;
78224;SDS011;67498;53.650;10.090;2023-04-24T00:53:29;4.07;;;1.00;;
78224;SDS011;67498;53.650;10.090;2023-04-24T00:55:54;3.87;;;1.10;;
78224;SDS011;67498;53.650;10.090;2023-04-24T00:58:19;3.27;;;1.00;;
78224;SDS011;67498;53.650;10.090;2023-04-24T01:00:45;4.20;;;1.33;;
78224;SDS011;67498;53.650;10.090;2023-04-24T01:03:11;11.77;;;1.02;;
78224;SDS011;67498;53.650;10.090;2023-04-24T01:05:36;3.90;;;1.40;;
78224;SDS011;67498;53.650;10.090;2023-04-24T01:08:01;2.83;;;0.87;;
78224;SDS011;67498;53.650;10.090;2023-04-24T01:10:26;3.37;;;1.27;;
78224;SDS011;67498;53.650;10.090;2023-04-24T01:12:52;5.83;;;1.70;;
78224;SDS011;67498;53.650;10.090;2023-04-24T01:15:17;3.77;;;1.00;;
78224;SDS011;67498;53.650;10.090;2023-04-24T01:17:43;4.63;;;1.20;;
78224;SDS011;67498;53.650;10.090;2023-04-24T01:20:08;3.67;;;1.33;;
78224;SDS011;67498;53.650;10.090;2023-04-24T01:22:34;3.13;;;1.23;;
78224;SDS011;67498;53.650;10.090;2023-04-24T01:24:59;4.10;;;1.33;;
78224;SDS011;67498;53.650;10.090;2023-04-24T01:27:24;2.73;;;0.77;;
78224;SDS011;67498;53.650;10.090;2023-04-24T01:29:49;5.27;;;0.93;;
78224;SDS011;67498;53.650;10.090;2023-04-24T01:32:16;4.30;;;1.40;;
78224;SDS011;67498;53.650;10.090;2023-04-24T01:34:42;6.43;;;1.73;;
78224;SDS011;67498;53.650;10.090;2023-04-24T01:37:07;3.60;;;1.40;;
78224;SDS011;67498;53.650;10.090;2023-04-24T01:39:32;5.43;;;2.03;;
78224;SDS011;67498;53.650;10.090;2023-04-24T01:41:58;4.17;;;1.20;;
78224;SDS011;67498;53.650;10.090;2023-04-24T01:44:24;4.20;;;1.20;;
78224;SDS011;67498;53.650;10.090;2023-04-24T01:46:50;3.87;;;1.27;;
78224;SDS011;67498;53.650;10.090;2023-04-24T01:49:15;5.70;;;1.90;;
78224;SDS011;67498;53.650;10.090;2023-04-24T01:51:40;4.10;;;1.60;;
78224;SDS011;67498;53.650;10.090;2023-04-24T01:54:05;10.40;;;1.30;;
78224;SDS011;67498;53.650;10.090;2023-04-24T01:56:31;3.30;;;1.03;;
78224;SDS011;67498;53.650;10.090;2023-04-24T01:58:58;4.50;;;1.20;;
78224;SDS011;67498;53.650;10.090;2023-04-24T02:01:23;4.20;;;1.33;;
78224;SDS011;67498;53.650;10.090;2023-04-24T02:03:49;3.85;;;1.05;;
78224;SDS011;67498;53.650;10.090;2023-04-24T02:06:14;3.13;;;1.10;;
78224;SDS011;67498;53.650;10.090;2023-04-24T02:08:39;9.37;;;1.60;;
78224;SDS011;67498;53.650;10.090;2023-04-24T02:11:04;9.73;;;1.03;;
78224;SDS011;67498;53.650;10.090;2023-04-24T02:13:30;3.83;;;1.07;;
78224;SDS011;67498;53.650;10.090;2023-04-24T02:15:55;4.43;;;1.23;;
78224;SDS011;67498;53.650;10.090;2023-04-24T02:18:21;2.93;;;0.70;;
78224;SDS011;67498;53.650;10.090;2023-04-24T02:20:47;3.03;;;0.98;;
78224;SDS011;67498;53.650;10.090;2023-04-24T02:23:12;2.80;;;1.00;;
78224;SDS011;67498;53.650;10.090;2023-04-24T02:25:38;5.20;;;0.98;;
78224;SDS011;67498;53.650;10.090;2023-04-24T02:28:03;3.23;;;0.90;;
78224;SDS011;67498;53.650;10.090;2023-04-24T02:30:28;4.43;;;0.90;;
78224;SDS011;67498;53.650;10.090;2023-04-24T02:32:54;2.70;;;0.60;;
78224;SDS011;67498;53.650;10.090;2023-04-24T02:35:20;4.03;;;0.88;;
78224;SDS011;67498;53.650;10.090;2023-04-24T02:37:45;2.55;;;0.70;;
78224;SDS011;67498;53.650;10.090;2023-04-24T02:40:10;2.90;;;0.80;;
78224;SDS011;67498;53.650;10.090;2023-04-24T02:42:35;2.77;;;0.70;;
78224;SDS011;67498;53.650;10.090;2023-04-24T02:45:01;2.08;;;0.40;;
78224;SDS011;67498;53.650;10.090;2023-04-24T02:47:26;2.67;;;0.50;;
78224;SDS011;67498;53.650;10.090;2023-04-24T02:49:51;2.40;;;0.70;;
78224;SDS011;67498;53.650;10.090;2023-04-24T02:52:16;2.22;;;0.55;;
78224;SDS011;67498;53.650;10.090;2023-04-24T02:54:42;2.20;;;0.63;;
78224;SDS011;67498;53.650;10.090;2023-04-24T02:57:07;2.77;;;0.80;;
78224;SDS011;67498;53.650;10.090;2023-04-24T02:59:32;1.83;;;0.30;;
78224;SDS011;67498;53.650;10.090;2023-04-24T03:01:58;2.88;;;0.70;;
78224;SDS011;67498;53.650;10.090;2023-04-24T03:04:23;3.80;;;0.70;;
78224;SDS011;67498;53.650;10.090;2023-04-24T03:06:48;3.03;;;0.80;;
78224;SDS011;67498;53.650;10.090;2023-04-24T03:09:13;2.03;;;0.40;;
78224;SDS011;67498;53.650;10.090;2023-04-24T03:11:39;1.73;;;0.30;;
78224;SDS011;67498;53.650;10.090;2023-04-24T03:14:05;2.15;;;0.57;;
78224;SDS011;67498;53.650;10.090;2023-04-24T03:16:30;2.30;;;0.43;;
78224;SDS011;67498;53.650;10.090;2023-04-24T03:18:55;3.63;;;0.60;;
78224;SDS011;67498;53.650;10.090;2023-04-24T03:21:21;1.38;;;0.38;;
78224;SDS011;67498;53.650;10.090;2023-04-24T03:23:46;1.73;;;0.40;;
78224;SDS011;67498;53.650;10.090;2023-04-24T03:26:11;1.67;;;0.20;;
78224;SDS011;67498;53.650;10.090;2023-04-24T03:28:36;1.40;;;0.40;;
78224;SDS011;67498;53.650;10.090;2023-04-24T03:31:02;1.77;;;0.47;;
78224;SDS011;67498;53.650;10.090;2023-04-24T03:33:27;1.77;;;0.30;;
78224;SDS011;67498;53.650;10.090;2023-04-24T03:35:52;1.43;;;0.30;;
78224;SDS011;67498;53.650;10.090;2023-04-24T03:38:18;1.63;;;0.37;;
78224;SDS011;67498;53.650;10.090;2023-04-24T03:40:43;2.65;;;0.47;;
78224;SDS011;67498;53.650;10.090;2023-04-24T03:43:08;1.67;;;0.30;;
78224;SDS011;67498;53.650;10.090;2023-04-24T03:45:33;4.43;;;0.50;;
78224;SDS011;67498;53.650;10.090;2023-04-24T03:47:58;1.40;;;0.30;;
78224;SDS011;67498;53.650;10.090;2023-04-24T03:50:23;1.93;;;0.40;;
78224;SDS011;67498;53.650;10.090;2023-04-24T03:52:49;1.67;;;0.40;;
78224;SDS011;67498;53.650;10.090;2023-04-24T03:55:14;1.73;;;0.28;;
78224;SDS011;67498;53.650;10.090;2023-04-24T03:57:40;2.43;;;0.43;;
78224;SDS011;67498;53.650;10.090;2023-04-24T04:00:05;2.43;;;0.60;;
78224;SDS011;67498;53.650;10.090;2023-04-24T04:02:31;10.38;;;2.42;;
78224;SDS011;67498;53.650;10.090;2023-04-24T04:04:56;6.50;;;1.53;;
78224;SDS011;67498;53.650;10.090;2023-04-24T04:07:21;2.20;;;0.63;;
78224;SDS011;67498;53.650;10.090;2023-04-24T04:09:46;1.87;;;0.57;;
78224;SDS011;67498;53.650;10.090;2023-04-24T04:12:11;1.50;;;0.22;;
78224;SDS011;67498;53.650;10.090;2023-04-24T04:14:37;1.93;;;0.40;;
78224;SDS011;67498;53.650;10.090;2023-04-24T04:17:03;1.60;;;0.30;;
78224;SDS011;67498;53.650;10.090;2023-04-24T04:19:28;1.67;;;0.40;;
78224;SDS011;67498;53.650;10.090;2023-04-24T04:21:53;1.40;;;0.30;;
78224;SDS011;67498;53.650;10.090;2023-04-24T04:24:21;2.03;;;0.40;;
78224;SDS011;67498;53.650;10.090;2023-04-24T04:26:47;2.83;;;0.40;;
78224;SDS011;67498;53.650;10.090;2023-04-24T04:29:13;1.53;;;0.20;;
78224;SDS011;67498;53.650;10.090;2023-04-24T04:31:38;1.92;;;0.40;;
78224;SDS011;67498;53.650;10.090;2023-04-24T04:34:03;1.53;;;0.30;;
78224;SDS011;67498;53.650;10.090;2023-04-24T04:36:28;2.50;;;0.67;;
78224;SDS011;67498;53.650;10.090;2023-04-24T04:38:54;1.97;;;0.40;;
78224;SDS011;67498;53.650;10.090;2023-04-24T04:41:19;2.00;;;0.40;;
78224;SDS011;67498;53.650;10.090;2023-04-24T04:43:45;0.80;;;0.10;;
78224;SDS011;67498;53.650;10.090;2023-04-24T04:46:11;9.20;;;4.67;;
78224;SDS011;67498;53.650;10.090;2023-04-24T04:48:36;2.00;;;0.50;;
78224;SDS011;67498;53.650;10.090;2023-04-24T04:51:02;2.55;;;0.52;;
78224;SDS011;67498;53.650;10.090;2023-04-24T04:53:27;2.03;;;0.50;;
78224;SDS011;67498;53.650;10.090;2023-04-24T04:55:52;1.40;;;0.40;;
78224;SDS011;67498;53.650;10.090;2023-04-24T04:58:17;1.73;;;0.30;;
78224;SDS011;67498;53.650;10.090;2023-04-24T05:00:43;2.70;;;0.30;;
78224;SDS011;67498;53.650;10.090;2023-04-24T05:03:08;2.83;;;0.57;;
78224;SDS011;67498;53.650;10.090;2023-04-24T05:05:33;1.27;;;0.30;;
78224;SDS011;67498;53.650;10.090;2023-04-24T05:07:58;2.15;;;0.20;;
78224;SDS011;67498;53.650;10.090;2023-04-24T05:10:23;1.97;;;0.60;;
78224;SDS011;67498;53.650;10.090;2023-04-24T05:12:48;1.97;;;0.30;;
78224;SDS011;67498;53.650;10.090;2023-04-24T05:15:14;1.50;;;0.30;;
78224;SDS011;67498;53.650;10.090;2023-04-24T05:17:39;1.50;;;0.30;;
78224;SDS011;67498;53.650;10.090;2023-04-24T05:20:05;1.70;;;0.30;;
78224;SDS011;67498;53.650;10.090;2023-04-24T05:22:31;2.27;;;0.40;;
78224;SDS011;67498;53.650;10.090;2023-04-24T05:24:56;2.30;;;0.40;;
78224;SDS011;67498;53.650;10.090;2023-04-24T05:27:22;2.50;;;0.50;;
78224;SDS011;67498;53.650;10.090;2023-04-24T05:29:47;1.70;;;0.40;;
78224;SDS011;67498;53.650;10.090;2023-04-24T05:32:12;1.07;;;0.17;;
78224;SDS011;67498;53.650;10.090;2023-04-24T05:34:37;1.43;;;0.30;;
78224;SDS011;67498;53.650;10.090;2023-04-24T05:37:02;3.53;;;0.57;;
78224;SDS011;67498;53.650;10.090;2023-04-24T05:39:28;2.30;;;0.40;;
78224;SDS011;67498;53.650;10.090;2023-04-24T05:41:53;1.93;;;0.40;;
78224;SDS011;67498;53.650;10.090;2023-04-24T05:44:20;1.58;;;0.30;;
78224;SDS011;67498;53.650;10.090;2023-04-24T05:46:45;1.63;;;0.30;;
78224;SDS011;67498;53.650;10.090;2023-04-24T05:49:10;1.97;;;0.33;;
78224;SDS011;67498;53.650;10.090;2023-04-24T05:51:35;5.33;;;0.50;;
78224;SDS011;67498;53.650;10.090;2023-04-24T05:54:00;1.77;;;0.20;;
78224;SDS011;67498;53.650;10.090;2023-04-24T05:56:26;1.83;;;0.22;;
78224;SDS011;67498;53.650;10.090;2023-04-24T05:58:52;3.23;;;0.60;;
78224;SDS011;67498;53.650;10.090;2023-04-24T06:01:17;7.20;;;0.57;;
78224;SDS011;67498;53.650;10.090;2023-04-24T06:03:43;1.70;;;0.40;;
78224;SDS011;67498;53.650;10.090;2023-04-24T06:06:08;1.90;;;0.43;;
78224;SDS011;67498;53.650;10.090;2023-04-24T06:08:33;2.03;;;0.40;;
78224;SDS011;67498;53.650;10.090;2023-04-24T06:10:59;1.80;;;0.32;;
78224;SDS011;67498;53.650;10.090;2023-04-24T06:13:24;2.30;;;0.40;;
78224;SDS011;67498;53.650;10.090;2023-04-24T06:15:49;1.60;;;0.30;;
78224;SDS011;67498;53.650;10.090;2023-04-24T06:18:15;2.93;;;0.63;;
78224;SDS011;67498;53.650;10.090;2023-04-24T06:20:40;1.87;;;0.40;;
78224;SDS011;67498;53.650;10.090;2023-04-24T06:23:05;2.63;;;0.47;;
78224;SDS011;67498;53.650;10.090;2023-04-24T06:25:30;2.93;;;0.60;;
78224;SDS011;67498;53.650;10.090;2023-04-24T06:27:56;1.70;;;0.30;;
78224;SDS011;67498;53.650;10.090;2023-04-24T06:30:21;2.20;;;0.30;;
78224;SDS011;67498;53.650;10.090;2023-04-24T06:32:47;2.20;;;0.50;;
78224;SDS011;67498;53.650;10.090;2023-04-24T06:35:12;2.70;;;0.67;;
78224;SDS011;67498;53.650;10.090;2023-04-24T06:37:38;2.00;;;0.37;;
78224;SDS011;67498;53.650;10.090;2023-04-24T06:40:04;1.65;;;0.40;;
78224;SDS011;67498;53.650;10.090;2023-04-24T06:42:29;3.00;;;0.50;;
78224;SDS011;67498;53.650;10.090;2023-04-24T06:44:54;2.42;;;0.50;;
78224;SDS011;67498;53.650;10.090;2023-04-24T06:47:19;2.30;;;0.63;;
78224;SDS011;67498;53.650;10.090;2023-04-24T06:49:45;2.10;;;0.50;;
78224;SDS011;67498;53.650;10.090;2023-04-24T06:52:10;2.20;;;0.47;;
78224;SDS011;67498;53.650;10.090;2023-04-24T06:54:35;2.13;;;0.40;;
78224;SDS011;67498;53.650;10.090;2023-04-24T06:57:00;1.98;;;0.40;;
78224;SDS011;67498;53.650;10.090;2023-04-24T06:59:26;1.67;;;0.33;;
78224;SDS011;67498;53.650;10.090;2023-04-24T07:01:51;9.13;;;0.70;;
78224;SDS011;67498;53.650;10.090;2023-04-24T07:04:17;2.90;;;0.57;;
78224;SDS011;67498;53.650;10.090;2023-04-24T07:06:42;2.60;;;0.80;;
78224;SDS011;67498;53.650;10.090;2023-04-24T07:09:07;2.40;;;0.50;;
78224;SDS011;67498;53.650;10.090;2023-04-24T07:11:34;4.53;;;0.60;;
78224;SDS011;67498;53.650;10.090;2023-04-24T07:14:01;2.40;;;0.40;;
78224;SDS011;67498;53.650;10.090;2023-04-24T07:16:26;3.30;;;0.90;;
78224;SDS011;67498;53.650;10.090;2023-04-24T07:18:52;3.30;;;0.70;;
78224;SDS011;67498;53.650;10.090;2023-04-24T07:21:17;2.80;;;0.50;;
78224;SDS011;67498;53.650;10.090;2023-04-24T07:23:42;2.83;;;0.60;;
78224;SDS011;67498;53.650;10.090;2023-04-24T07:26:07;2.43;;;0.63;;
78224;SDS011;67498;53.650;10.090;2023-04-24T07:28:32;2.83;;;0.50;;
78224;SDS011;67498;53.650;10.090;2023-04-24T07:30:57;2.93;;;0.63;;
78224;SDS011;67498;53.650;10.090;2023-04-24T07:33:24;3.33;;;0.80;;
78224;SDS011;67498;53.650;10.090;2023-04-24T07:35:49;3.00;;;0.70;;
78224;SDS011;67498;53.650;10.090;2023-04-24T07:38:15;2.87;;;0.70;;
78224;SDS011;67498;53.650;10.090;2023-04-24T07:40:40;2.40;;;0.60;;
78224;SDS011;67498;53.650;10.090;2023-04-24T07:43:05;3.67;;;0.83;;
78224;SDS011;67498;53.650;10.090;2023-04-24T07:45:30;3.77;;;1.03;;
78224;SDS011;67498;53.650;10.090;2023-04-24T07:47:56;3.00;;;0.60;;
78224;SDS011;67498;53.650;10.090;2023-04-24T07:50:21;2.90;;;0.67;;
78224;SDS011;67498;53.650;10.090;2023-04-24T07:52:46;2.40;;;0.60;;
78224;SDS011;67498;53.650;10.090;2023-04-24T07:55:12;3.95;;;0.70;;
78224;SDS011;67498;53.650;10.090;2023-04-24T07:57:37;4.43;;;1.20;;
78224;SDS011;67498;53.650;10.090;2023-04-24T08:00:03;3.30;;;0.90;;
78224;SDS011;67498;53.650;10.090;2023-04-24T08:02:28;3.63;;;1.13;;
78224;SDS011;67498;53.650;10.090;2023-04-24T08:04:54;3.73;;;1.00;;
78224;SDS011;67498;53.650;10.090;2023-04-24T08:07:19;4.70;;;1.10;;
78224;SDS011;67498;53.650;10.090;2023-04-24T08:09:44;9.23;;;1.20;;
78224;SDS011;67498;53.650;10.090;2023-04-24T08:12:09;4.77;;;1.00;;
78224;SDS011;67498;53.650;10.090;2023-04-24T08:14:35;3.13;;;0.90;;
78224;SDS011;67498;53.650;10.090;2023-04-24T08:17:00;3.93;;;1.10;;
78224;SDS011;67498;53.650;10.090;2023-04-24T08:19:26;4.82;;;1.25;;
78224;SDS011;67498;53.650;10.090;2023-04-24T08:21:51;4.13;;;1.07;;
78224;SDS011;67498;53.650;10.090;2023-04-24T08:24:16;5.60;;;1.57;;
78224;SDS011;67498;53.650;10.090;2023-04-24T08:26:41;3.80;;;1.30;;
78224;SDS011;67498;53.650;10.090;2023-04-24T08:29:07;3.57;;;0.97;;
78224;SDS011;67498;53.650;10.090;2023-04-24T08:31:32;4.27;;;1.10;;
78224;SDS011;67498;53.650;10.090;2023-04-24T08:33:58;3.78;;;1.30;;
78224;SDS011;67498;53.650;10.090;2023-04-24T08:36:24;4.63;;;1.33;;
78224;SDS011;67498;53.650;10.090;2023-04-24T08:38:50;6.32;;;1.40;;
78224;SDS011;67498;53.650;10.090;2023-04-24T08:41:15;4.90;;;1.60;;
78224;SDS011;67498;53.650;10.090;2023-04-24T08:43:42;4.03;;;1.45;;
78224;SDS011;67498;53.650;10.090;2023-04-24T08:46:08;4.60;;;1.90;;
78224;SDS011;67498;53.650;10.090;2023-04-24T08:48:34;3.65;;;1.25;;
78224;SDS011;67498;53.650;10.090;2023-04-24T08:51:00;5.10;;;1.80;;
78224;SDS011;67498;53.650;10.090;2023-04-24T08:53:26;3.92;;;1.08;;
78224;SDS011;67498;53.650;10.090;2023-04-24T08:55:51;4.33;;;1.27;;
78224;SDS011;67498;53.650;10.090;2023-04-24T08:58:18;3.28;;;0.82;;
78224;SDS011;67498;53.650;10.090;2023-04-24T09:00:43;4.63;;;1.47;;
78224;SDS011;67498;53.650;10.090;2023-04-24T09:03:12;4.95;;;1.55;;
78224;SDS011;67498;53.650;10.090;2023-04-24T09:05:38;4.40;;;1.30;;
78224;SDS011;67498;53.650;10.090;2023-04-24T09:08:03;4.50;;;1.43;;
78224;SDS011;67498;53.650;10.090;2023-04-24T09:10:29;5.47;;;2.10;;
78224;SDS011;67498;53.650;10.090;2023-04-24T09:12:55;3.83;;;1.20;;
78224;SDS011;67498;53.650;10.090;2023-04-24T09:15:21;4.43;;;1.73;;
78224;SDS011;67498;53.650;10.090;2023-04-24T09:17:46;4.93;;;1.73;;
78224;SDS011;67498;53.650;10.090;2023-04-24T09:20:12;4.87;;;1.60;;
78224;SDS011;67498;53.650;10.090;2023-04-24T09:22:37;4.80;;;1.77;;
78224;SDS011;67498;53.650;10.090;2023-04-24T09:25:03;7.40;;;1.87;;
78224;SDS011;67498;53.650;10.090;2023-04-24T09:27:29;4.85;;;1.65;;
78224;SDS011;67498;53.650;10.090;2023-04-24T09:29:54;4.70;;;1.70;;
78224;SDS011;67498;53.650;10.090;2023-04-24T09:32:21;5.78;;;1.70;;
78224;SDS011;67498;53.650;10.090;2023-04-24T09:34:46;2.73;;;1.00;;
78224;SDS011;67498;53.650;10.090;2023-04-24T09:37:12;5.80;;;1.33;;
78224;SDS011;67498;53.650;10.090;2023-04-24T09:39:40;7.93;;;1.63;;
78224;SDS011;67498;53.650;10.090;2023-04-24T09:42:05;6.57;;;1.70;;
78224;SDS011;67498;53.650;10.090;2023-04-24T09:44:31;5.07;;;1.90;;
78224;SDS011;67498;53.650;10.090;2023-04-24T09:46:59;4.63;;;1.40;;
78224;SDS011;67498;53.650;10.090;2023-04-24T09:49:25;6.77;;;1.90;;
78224;SDS011;67498;53.650;10.090;2023-04-24T09:51:51;4.35;;;1.25;;
78224;SDS011;67498;53.650;10.090;2023-04-24T09:54:17;4.07;;;1.30;;
78224;SDS011;67498;53.650;10.090;2023-04-24T09:56:43;5.15;;;1.70;;
78224;SDS011;67498;53.650;10.090;2023-04-24T09:59:10;5.35;;;1.90;;
78224;SDS011;67498;53.650;10.090;2023-04-24T10:01:35;5.43;;;1.58;;
78224;SDS011;67498;53.650;10.090;2023-04-24T10:04:01;4.78;;;1.67;;
78224;SDS011;67498;53.650;10.090;2023-04-24T10:06:35;4.17;;;1.23;;
78224;SDS011;67498;53.650;10.090;2023-04-24T10:09:01;4.70;;;1.25;;
78224;SDS011;67498;53.650;10.090;2023-04-24T10:11:26;4.57;;;1.60;;
78224;SDS011;67498;53.650;10.090;2023-04-24T10:13:51;5.77;;;1.17;;
78224;SDS011;67498;53.650;10.090;2023-04-24T10:16:17;4.80;;;1.77;;
78224;SDS011;67498;53.650;10.090;2023-04-24T10:18:42;5.30;;;2.00;;
78224;SDS011;67498;53.650;10.090;2023-04-24T10:21:08;4.32;;;1.40;;
78224;SDS011;67498;53.650;10.090;2023-04-24T10:23:33;7.17;;;1.97;;
78224;SDS011;67498;53.650;10.090;2023-04-24T10:25:58;4.47;;;1.57;;
78224;SDS011;67498;53.650;10.090;2023-04-24T10:28:25;4.43;;;1.48;;
78224;SDS011;67498;53.650;10.090;2023-04-24T10:30:50;3.87;;;1.20;;
78224;SDS011;67498;53.650;10.090;2023-04-24T10:33:19;5.00;;;1.55;;
78224;SDS011;67498;53.650;10.090;2023-04-24T10:35:45;4.30;;;1.37;;
78224;SDS011;67498;53.650;10.090;2023-04-24T10:38:13;4.93;;;1.60;;
78224;SDS011;67498;53.650;10.090;2023-04-24T10:40:39;5.43;;;1.98;;
78224;SDS011;67498;53.650;10.090;2023-04-24T10:43:04;6.77;;;1.70;;
78224;SDS011;67498;53.650;10.090;2023-04-24T10:45:34;11.25;;;2.13;;
78224;SDS011;67498;53.650;10.090;2023-04-24T10:48:09;6.83;;;2.37;;
78224;SDS011;67498;53.650;10.090;2023-04-24T10:50:50;5.90;;;2.05;;
78224;SDS011;67498;53.650;10.090;2023-04-24T10:53:20;9.02;;;3.13;;
78224;SDS011;67498;53.650;10.090;2023-04-24T10:55:46;7.63;;;2.70;;
78224;SDS011;67498;53.650;10.090;2023-04-24T10:58:12;7.13;;;2.35;;
78224;SDS011;67498;53.650;10.090;2023-04-24T11:00:38;7.93;;;3.07;;
78224;SDS011;67498;53.650;10.090;2023-04-24T11:03:04;5.00;;;1.80;;
78224;SDS011;67498;53.650;10.090;2023-04-24T11:08:14;4.87;;;1.87;;
78224;SDS011;67498;53.650;10.090;2023-04-24T11:10:40;5.70;;;2.45;;
78224;SDS011;67498;53.650;10.090;2023-04-24T11:13:06;5.93;;;2.35;;
78224;SDS011;67498;53.650;10.090;2023-04-24T11:15:31;10.10;;;2.95;;
78224;SDS011;67498;53.650;10.090;2023-04-24T11:17:56;6.00;;;2.37;;
78224;SDS011;67498;53.650;10.090;2023-04-24T11:20:22;5.80;;;1.93;;
78224;SDS011;67498;53.650;10.090;2023-04-24T11:22:48;7.05;;;2.47;;
78224;SDS011;67498;53.650;10.090;2023-04-24T11:25:13;6.10;;;2.20;;
78224;SDS011;67498;53.650;10.090;2023-04-24T11:27:42;7.23;;;2.60;;
78224;SDS011;67498;53.650;10.090;2023-04-24T11:30:07;7.50;;;2.55;;
78224;SDS011;67498;53.650;10.090;2023-04-24T11:35:20;6.35;;;2.40;;
78224;SDS011;67498;53.650;10.090;2023-04-24T11:37:47;6.95;;;2.95;;
78224;SDS011;67498;53.650;10.090;2023-04-24T11:40:16;5.75;;;2.08;;
78224;SDS011;67498;53.650;10.090;2023-04-24T11:42:44;6.40;;;2.30;;
78224;SDS011;67498;53.650;10.090;2023-04-24T11:47:37;8.50;;;2.55;;
78224;SDS011;67498;53.650;10.090;2023-04-24T11:50:03;6.47;;;2.67;;
78224;SDS011;67498;53.650;10.090;2023-04-24T11:52:29;7.40;;;3.07;;
78224;SDS011;67498;53.650;10.090;2023-04-24T11:54:54;6.57;;;2.33;;
78224;SDS011;67498;53.650;10.090;2023-04-24T11:57:20;7.67;;;2.90;;
78224;SDS011;67498;53.650;10.090;2023-04-24T11:59:45;8.27;;;2.92;;
78224;SDS011;67498;53.650;10.090;2023-04-24T12:02:19;8.50;;;2.22;;
78224;SDS011;67498;53.650;10.090;2023-04-24T12:04:45;7.90;;;2.37;;
78224;SDS011;67498;53.650;10.090;2023-04-24T12:07:10;5.87;;;2.20;;
78224;SDS011;67498;53.650;10.090;2023-04-24T12:09:46;6.40;;;2.43;;
78224;SDS011;67498;53.650;10.090;2023-04-24T12:12:11;4.93;;;2.05;;
78224;SDS011;67498;53.650;10.090;2023-04-24T12:14:58;7.15;;;2.08;;
78224;SDS011;67498;53.650;10.090;2023-04-24T12:17:29;5.85;;;2.63;;
78224;SDS011;67498;53.650;10.090;2023-04-24T12:20:03;4.72;;;1.30;;
78224;SDS011;67498;53.650;10.090;2023-04-24T12:22:42;5.43;;;1.70;;
78224;SDS011;67498;53.650;10.090;2023-04-24T12:25:09;7.93;;;1.70;;
78224;SDS011;67498;53.650;10.090;2023-04-24T12:27:35;6.72;;;2.50;;
78224;SDS011;67498;53.650;10.090;2023-04-24T12:30:01;5.07;;;1.80;;
78224;SDS011;67498;53.650;10.090;2023-04-24T12:32:27;6.05;;;2.10;;
78224;SDS011;67498;53.650;10.090;2023-04-24T12:34:53;5.90;;;1.80;;
78224;SDS011;67498;53.650;10.090;2023-04-24T12:37:18;6.35;;;2.17;;
78224;SDS011;67498;53.650;10.090;2023-04-24T12:42:28;4.47;;;1.50;;
78224;SDS011;67498;53.650;10.090;2023-04-24T12:45:00;5.80;;;2.03;;
78224;SDS011;67498;53.650;10.090;2023-04-24T12:47:26;5.60;;;2.13;;
78224;SDS011;67498;53.650;10.090;2023-04-24T12:49:51;4.95;;;1.67;;
78224;SDS011;67498;53.650;10.090;2023-04-24T12:52:17;4.82;;;1.80;;
78224;SDS011;67498;53.650;10.090;2023-04-24T12:54:43;4.20;;;1.43;;
78224;SDS011;67498;53.650;10.090;2023-04-24T12:57:09;12.15;;;2.38;;
78224;SDS011;67498;53.650;10.090;2023-04-24T12:59:34;6.50;;;1.83;;
78224;SDS011;67498;53.650;10.090;2023-04-24T13:01:59;5.83;;;2.20;;
78224;SDS011;67498;53.650;10.090;2023-04-24T13:04:24;5.60;;;2.23;;
78224;SDS011;67498;53.650;10.090;2023-04-24T13:06:49;5.27;;;1.60;;
78224;SDS011;67498;53.650;10.090;2023-04-24T13:09:15;5.40;;;1.70;;
78224;SDS011;67498;53.650;10.090;2023-04-24T13:11:40;7.47;;;2.50;;
78224;SDS011;67498;53.650;10.090;2023-04-24T13:14:05;5.13;;;1.77;;
78224;SDS011;67498;53.650;10.090;2023-04-24T13:16:30;5.30;;;1.30;;
78224;SDS011;67498;53.650;10.090;2023-04-24T13:18:55;5.03;;;1.52;;
78224;SDS011;67498;53.650;10.090;2023-04-24T13:21:21;4.53;;;1.30;;
78224;SDS011;67498;53.650;10.090;2023-04-24T13:23:46;4.50;;;1.60;;
78224;SDS011;67498;53.650;10.090;2023-04-24T13:26:11;5.57;;;1.63;;
78224;SDS011;67498;53.650;10.090;2023-04-24T13:28:36;5.47;;;2.00;;
78224;SDS011;67498;53.650;10.090;2023-04-24T13:31:03;5.00;;;1.60;;
78224;SDS011;67498;53.650;10.090;2023-04-24T13:33:28;6.23;;;2.30;;
78224;SDS011;67498;53.650;10.090;2023-04-24T13:35:53;4.00;;;1.20;;
78224;SDS011;67498;53.650;10.090;2023-04-24T13:38:18;3.87;;;1.43;;
78224;SDS011;67498;53.650;10.090;2023-04-24T13:40:46;5.53;;;1.60;;
78224;SDS011;67498;53.650;10.090;2023-04-24T13:43:11;6.00;;;2.07;;
78224;SDS011;67498;53.650;10.090;2023-04-24T13:45:36;4.17;;;1.17;;
78224;SDS011;67498;53.650;10.090;2023-04-24T13:48:02;4.35;;;1.25;;
78224;SDS011;67498;53.650;10.090;2023-04-24T13:50:28;3.83;;;1.20;;
78224;SDS011;67498;53.650;10.090;2023-04-24T13:52:53;6.47;;;1.80;;
78224;SDS011;67498;53.650;10.090;2023-04-24T13:55:19;5.57;;;1.60;;
78224;SDS011;67498;53.650;10.090;2023-04-24T13:57:44;5.17;;;1.83;;
78224;SDS011;67498;53.650;10.090;2023-04-24T14:00:09;5.43;;;1.83;;
78224;SDS011;67498;53.650;10.090;2023-04-24T14:02:36;3.67;;;1.20;;
78224;SDS011;67498;53.650;10.090;2023-04-24T14:05:01;4.60;;;1.60;;
78224;SDS011;67498;53.650;10.090;2023-04-24T14:07:28;5.73;;;2.20;;
78224;SDS011;67498;53.650;10.090;2023-04-24T14:09:53;3.85;;;1.10;;
78224;SDS011;67498;53.650;10.090;2023-04-24T14:12:19;4.47;;;1.23;;
78224;SDS011;67498;53.650;10.090;2023-04-24T14:14:45;4.77;;;1.30;;
78224;SDS011;67498;53.650;10.090;2023-04-24T14:17:10;3.63;;;1.13;;
78224;SDS011;67498;53.650;10.090;2023-04-24T14:19:35;2.93;;;0.87;;
78224;SDS011;67498;53.650;10.090;2023-04-24T14:22:01;3.83;;;1.33;;
78224;SDS011;67498;53.650;10.090;2023-04-24T14:24:26;3.30;;;0.90;;
78224;SDS011;67498;53.650;10.090;2023-04-24T14:26:51;5.50;;;1.15;;
78224;SDS011;67498;53.650;10.090;2023-04-24T14:29:16;5.60;;;1.47;;
78224;SDS011;67498;53.650;10.090;2023-04-24T14:31:42;4.15;;;1.55;;
78224;SDS011;67498;53.650;10.090;2023-04-24T14:34:07;3.07;;;0.83;;